< Typhoon 199720 1997 Season Typhoon 199722 >
Typhoon 199721 (FRITZ)
General InformationTrack Information on Google MapsDetailed Wind InformationList of All Images || Disaster Info.ResourceGoogle EarthGE AnimationAtom FeedGeoJSON
Detalied Best Track (Time Zone = UTC)
Year Month Day Hour Lat. Long. Pressure (hPa) Wind (kt) Class Image Chart
1997 9 21 06 14.7 109.7 1006 0 2 Image Chart
1997 9 21 12 14.8 109.8 1006 0 2 Image Chart
1997 9 21 18 14.9 109.9 1006 0 2 Image Chart
1997 9 22 00 15.0 110.0 1006 0 2 Image Chart
1997 9 22 06 15.1 110.2 1006 0 2 Image Chart
1997 9 22 12 15.2 110.5 1006 0 2 Image Chart
1997 9 22 18 15.3 110.7 1004 0 2 Image Chart
1997 9 23 00 15.3 111.0 1002 0 2 Image Chart
1997 9 23 06 15.4 111.1 1000 0 2 Image Chart
1997 9 23 12 15.6 111.2 998 35 3 Image Chart
1997 9 23 18 15.7 111.1 998 35 3 Image Chart
1997 9 24 00 15.8 111.0 994 40 3 Image Chart
1997 9 24 06 15.8 110.4 990 45 3 Image Chart
1997 9 24 12 15.6 109.8 985 50 4 Image Chart
1997 9 24 18 15.6 109.2 980 55 4 Image Chart
1997 9 25 00 15.8 108.8 980 55 4 Image Chart
1997 9 25 06 15.8 108.3 990 45 3 Image Chart
1997 9 25 12 15.6 107.5 996 35 3 Image Chart
1997 9 25 18 15.3 106.4 1000 35 3 Image Chart
1997 9 26 00 15.5 106.2 1006 0 2 Image Chart
1997 9 26 06 15.8 106.0 1006 0 2 Image Chart
1997 9 26 12 15.7 105.8 1008 0 2 Image Chart
1997 9 26 18 15.5 105.6 1008 0 2 Image Chart
1997 9 27 00 15.2 105.5 1010 0 2 Image Chart
Japan Meteorological Agency Best Track Data | Correction Date : 1998-01-19
< Typhoon 199720 1997 Season Typhoon 199722 >

Help